sensor_id;sensor_type;location;lat;lon;timestamp;P1;durP1;ratioP1;P2;durP2;ratioP2
47882;SDS011;37739;50.350;7.578;2023-07-24T00:00:16;1.60;;;1.50;;
47882;SDS011;37739;50.350;7.578;2023-07-24T00:02:41;1.73;;;1.63;;
47882;SDS011;37739;50.350;7.578;2023-07-24T00:05:09;1.73;;;1.47;;
47882;SDS011;37739;50.350;7.578;2023-07-24T00:07:35;1.53;;;1.40;;
47882;SDS011;37739;50.350;7.578;2023-07-24T00:10:03;2.00;;;1.43;;
47882;SDS011;37739;50.350;7.578;2023-07-24T00:12:29;2.00;;;1.70;;
47882;SDS011;37739;50.350;7.578;2023-07-24T00:14:57;1.50;;;1.33;;
47882;SDS011;37739;50.350;7.578;2023-07-24T00:17:22;2.10;;;1.90;;
47882;SDS011;37739;50.350;7.578;2023-07-24T00:19:50;2.10;;;1.50;;
47882;SDS011;37739;50.350;7.578;2023-07-24T00:22:15;1.83;;;1.73;;
47882;SDS011;37739;50.350;7.578;2023-07-24T00:24:40;2.10;;;1.67;;
47882;SDS011;37739;50.350;7.578;2023-07-24T00:27:06;1.67;;;1.57;;
47882;SDS011;37739;50.350;7.578;2023-07-24T00:29:33;1.90;;;1.57;;
47882;SDS011;37739;50.350;7.578;2023-07-24T00:31:59;2.17;;;1.80;;
47882;SDS011;37739;50.350;7.578;2023-07-24T00:34:26;1.70;;;1.50;;
47882;SDS011;37739;50.350;7.578;2023-07-24T00:36:54;1.70;;;1.50;;
47882;SDS011;37739;50.350;7.578;2023-07-24T00:39:19;2.40;;;1.57;;
47882;SDS011;37739;50.350;7.578;2023-07-24T00:41:45;3.50;;;1.60;;
47882;SDS011;37739;50.350;7.578;2023-07-24T00:44:10;2.07;;;1.87;;
47882;SDS011;37739;50.350;7.578;2023-07-24T00:46:40;2.70;;;1.53;;
47882;SDS011;37739;50.350;7.578;2023-07-24T00:49:07;1.80;;;1.50;;
47882;SDS011;37739;50.350;7.578;2023-07-24T00:51:36;1.73;;;1.63;;
47882;SDS011;37739;50.350;7.578;2023-07-24T00:54:03;2.57;;;1.80;;
47882;SDS011;37739;50.350;7.578;2023-07-24T00:56:33;3.13;;;1.70;;
47882;SDS011;37739;50.350;7.578;2023-07-24T00:59:00;2.60;;;1.63;;
47882;SDS011;37739;50.350;7.578;2023-07-24T01:01:28;1.70;;;1.60;;
47882;SDS011;37739;50.350;7.578;2023-07-24T01:03:57;2.07;;;1.30;;
47882;SDS011;37739;50.350;7.578;2023-07-24T01:06:25;1.97;;;1.77;;
47882;SDS011;37739;50.350;7.578;2023-07-24T01:08:53;1.70;;;1.60;;
47882;SDS011;37739;50.350;7.578;2023-07-24T01:11:19;1.77;;;1.67;;
47882;SDS011;37739;50.350;7.578;2023-07-24T01:13:54;2.10;;;1.70;;
47882;SDS011;37739;50.350;7.578;2023-07-24T01:16:26;2.17;;;1.73;;
47882;SDS011;37739;50.350;7.578;2023-07-24T01:18:58;1.60;;;1.43;;
47882;SDS011;37739;50.350;7.578;2023-07-24T01:21:29;1.67;;;1.57;;
47882;SDS011;37739;50.350;7.578;2023-07-24T01:26:48;2.07;;;1.87;;
47882;SDS011;37739;50.350;7.578;2023-07-24T01:29:15;2.10;;;1.70;;
47882;SDS011;37739;50.350;7.578;2023-07-24T01:31:42;1.67;;;1.57;;
47882;SDS011;37739;50.350;7.578;2023-07-24T01:34:10;2.03;;;1.77;;
47882;SDS011;37739;50.350;7.578;2023-07-24T01:36:35;1.70;;;1.60;;
47882;SDS011;37739;50.350;7.578;2023-07-24T01:39:01;1.77;;;1.67;;
47882;SDS011;37739;50.350;7.578;2023-07-24T01:41:26;1.60;;;1.50;;
47882;SDS011;37739;50.350;7.578;2023-07-24T01:43:52;1.60;;;1.30;;
47882;SDS011;37739;50.350;7.578;2023-07-24T01:46:18;1.90;;;1.80;;
47882;SDS011;37739;50.350;7.578;2023-07-24T01:48:43;2.20;;;1.90;;
47882;SDS011;37739;50.350;7.578;2023-07-24T01:51:08;2.20;;;2.00;;
47882;SDS011;37739;50.350;7.578;2023-07-24T01:53:34;1.60;;;1.37;;
47882;SDS011;37739;50.350;7.578;2023-07-24T01:55:59;2.23;;;2.03;;
47882;SDS011;37739;50.350;7.578;2023-07-24T01:58:24;1.90;;;1.70;;
47882;SDS011;37739;50.350;7.578;2023-07-24T02:00:55;2.37;;;1.70;;
47882;SDS011;37739;50.350;7.578;2023-07-24T02:03:23;2.40;;;2.10;;
47882;SDS011;37739;50.350;7.578;2023-07-24T02:05:49;2.10;;;1.80;;
47882;SDS011;37739;50.350;7.578;2023-07-24T02:08:15;3.07;;;2.03;;
47882;SDS011;37739;50.350;7.578;2023-07-24T02:10:41;1.97;;;1.80;;
47882;SDS011;37739;50.350;7.578;2023-07-24T02:13:06;1.73;;;1.63;;
47882;SDS011;37739;50.350;7.578;2023-07-24T02:15:32;2.03;;;1.60;;
47882;SDS011;37739;50.350;7.578;2023-07-24T02:17:57;1.70;;;1.60;;
47882;SDS011;37739;50.350;7.578;2023-07-24T02:20:23;2.10;;;1.80;;
47882;SDS011;37739;50.350;7.578;2023-07-24T02:22:50;1.97;;;1.47;;
47882;SDS011;37739;50.350;7.578;2023-07-24T02:25:16;2.00;;;1.60;;
47882;SDS011;37739;50.350;7.578;2023-07-24T02:27:44;1.77;;;1.67;;
47882;SDS011;37739;50.350;7.578;2023-07-24T02:30:09;2.20;;;1.60;;
47882;SDS011;37739;50.350;7.578;2023-07-24T02:32:35;1.77;;;1.67;;
47882;SDS011;37739;50.350;7.578;2023-07-24T02:35:00;1.90;;;1.63;;
47882;SDS011;37739;50.350;7.578;2023-07-24T02:37:26;2.80;;;1.70;;
47882;SDS011;37739;50.350;7.578;2023-07-24T02:39:55;2.00;;;1.80;;
47882;SDS011;37739;50.350;7.578;2023-07-24T02:42:21;2.27;;;1.40;;
47882;SDS011;37739;50.350;7.578;2023-07-24T02:44:46;1.87;;;1.67;;
47882;SDS011;37739;50.350;7.578;2023-07-24T02:47:11;2.00;;;1.80;;
47882;SDS011;37739;50.350;7.578;2023-07-24T02:49:41;1.77;;;1.40;;
47882;SDS011;37739;50.350;7.578;2023-07-24T02:52:07;2.63;;;2.23;;
47882;SDS011;37739;50.350;7.578;2023-07-24T02:54:34;2.47;;;1.47;;
47882;SDS011;37739;50.350;7.578;2023-07-24T02:57:00;1.87;;;1.70;;
47882;SDS011;37739;50.350;7.578;2023-07-24T02:59:30;1.70;;;1.60;;
47882;SDS011;37739;50.350;7.578;2023-07-24T03:01:56;1.63;;;1.53;;
47882;SDS011;37739;50.350;7.578;2023-07-24T03:04:26;1.60;;;1.50;;
47882;SDS011;37739;50.350;7.578;2023-07-24T03:06:54;2.90;;;2.00;;
47882;SDS011;37739;50.350;7.578;2023-07-24T03:09:22;2.10;;;1.63;;
47882;SDS011;37739;50.350;7.578;2023-07-24T03:11:47;2.33;;;2.13;;
47882;SDS011;37739;50.350;7.578;2023-07-24T03:14:15;2.50;;;1.77;;
47882;SDS011;37739;50.350;7.578;2023-07-24T03:16:40;2.00;;;1.80;;
47882;SDS011;37739;50.350;7.578;2023-07-24T03:19:05;3.83;;;2.10;;
47882;SDS011;37739;50.350;7.578;2023-07-24T03:21:31;2.83;;;2.00;;
47882;SDS011;37739;50.350;7.578;2023-07-24T03:23:56;2.80;;;2.30;;
47882;SDS011;37739;50.350;7.578;2023-07-24T03:26:21;2.27;;;2.07;;
47882;SDS011;37739;50.350;7.578;2023-07-24T03:28:46;2.20;;;2.00;;
47882;SDS011;37739;50.350;7.578;2023-07-24T03:31:12;2.63;;;2.10;;
47882;SDS011;37739;50.350;7.578;2023-07-24T03:33:39;2.23;;;2.03;;
47882;SDS011;37739;50.350;7.578;2023-07-24T03:36:05;2.30;;;2.10;;
47882;SDS011;37739;50.350;7.578;2023-07-24T03:38:30;2.40;;;2.20;;
47882;SDS011;37739;50.350;7.578;2023-07-24T03:40:55;2.40;;;2.20;;
47882;SDS011;37739;50.350;7.578;2023-07-24T03:43:23;2.33;;;2.07;;
47882;SDS011;37739;50.350;7.578;2023-07-24T03:45:48;2.40;;;2.10;;
47882;SDS011;37739;50.350;7.578;2023-07-24T03:48:13;2.20;;;2.00;;
47882;SDS011;37739;50.350;7.578;2023-07-24T03:50:41;2.70;;;2.50;;
47882;SDS011;37739;50.350;7.578;2023-07-24T03:53:09;2.53;;;2.33;;
47882;SDS011;37739;50.350;7.578;2023-07-24T03:55:36;3.00;;;2.40;;
47882;SDS011;37739;50.350;7.578;2023-07-24T03:58:04;2.70;;;2.50;;
47882;SDS011;37739;50.350;7.578;2023-07-24T04:00:32;1.93;;;1.77;;
47882;SDS011;37739;50.350;7.578;2023-07-24T04:02:57;1.90;;;1.67;;
47882;SDS011;37739;50.350;7.578;2023-07-24T04:05:27;2.83;;;2.30;;
47882;SDS011;37739;50.350;7.578;2023-07-24T04:07:55;2.90;;;2.07;;
47882;SDS011;37739;50.350;7.578;2023-07-24T04:10:20;3.07;;;2.33;;
47882;SDS011;37739;50.350;7.578;2023-07-24T04:12:46;2.90;;;2.70;;
47882;SDS011;37739;50.350;7.578;2023-07-24T04:15:11;2.47;;;2.20;;
47882;SDS011;37739;50.350;7.578;2023-07-24T04:17:39;2.90;;;2.60;;
47882;SDS011;37739;50.350;7.578;2023-07-24T04:20:07;2.30;;;1.90;;
47882;SDS011;37739;50.350;7.578;2023-07-24T04:22:35;2.40;;;2.20;;
47882;SDS011;37739;50.350;7.578;2023-07-24T04:25:02;2.40;;;2.20;;
47882;SDS011;37739;50.350;7.578;2023-07-24T04:27:28;2.37;;;2.03;;
47882;SDS011;37739;50.350;7.578;2023-07-24T04:29:53;3.17;;;2.70;;
47882;SDS011;37739;50.350;7.578;2023-07-24T04:32:19;3.20;;;2.87;;
47882;SDS011;37739;50.350;7.578;2023-07-24T04:34:44;2.33;;;2.13;;
47882;SDS011;37739;50.350;7.578;2023-07-24T04:37:11;2.70;;;2.27;;
47882;SDS011;37739;50.350;7.578;2023-07-24T04:39:39;3.27;;;2.90;;
47882;SDS011;37739;50.350;7.578;2023-07-24T04:42:05;2.90;;;2.50;;
47882;SDS011;37739;50.350;7.578;2023-07-24T04:44:35;2.50;;;2.30;;
47882;SDS011;37739;50.350;7.578;2023-07-24T04:47:00;3.30;;;2.20;;
47882;SDS011;37739;50.350;7.578;2023-07-24T04:49:28;3.33;;;2.67;;
47882;SDS011;37739;50.350;7.578;2023-07-24T04:51:57;3.00;;;2.70;;
47882;SDS011;37739;50.350;7.578;2023-07-24T04:54:24;2.93;;;2.53;;
47882;SDS011;37739;50.350;7.578;2023-07-24T04:56:53;2.80;;;2.50;;
47882;SDS011;37739;50.350;7.578;2023-07-24T04:59:21;3.07;;;2.77;;
47882;SDS011;37739;50.350;7.578;2023-07-24T05:01:46;4.23;;;2.90;;
47882;SDS011;37739;50.350;7.578;2023-07-24T05:04:11;2.80;;;2.60;;
47882;SDS011;37739;50.350;7.578;2023-07-24T05:06:41;3.87;;;3.23;;
47882;SDS011;37739;50.350;7.578;2023-07-24T05:09:06;4.23;;;3.03;;
47882;SDS011;37739;50.350;7.578;2023-07-24T05:11:32;2.90;;;2.60;;
47882;SDS011;37739;50.350;7.578;2023-07-24T05:14:00;2.83;;;2.40;;
47882;SDS011;37739;50.350;7.578;2023-07-24T05:16:27;3.20;;;2.77;;
47882;SDS011;37739;50.350;7.578;2023-07-24T05:18:57;3.10;;;2.83;;
47882;SDS011;37739;50.350;7.578;2023-07-24T05:21:22;2.90;;;2.70;;
47882;SDS011;37739;50.350;7.578;2023-07-24T05:23:53;3.17;;;2.50;;
47882;SDS011;37739;50.350;7.578;2023-07-24T05:26:20;3.57;;;2.77;;
47882;SDS011;37739;50.350;7.578;2023-07-24T05:28:47;4.73;;;2.97;;
47882;SDS011;37739;50.350;7.578;2023-07-24T05:31:12;3.27;;;2.97;;
47882;SDS011;37739;50.350;7.578;2023-07-24T05:33:40;3.60;;;2.77;;
47882;SDS011;37739;50.350;7.578;2023-07-24T05:36:05;2.80;;;2.50;;
47882;SDS011;37739;50.350;7.578;2023-07-24T05:38:30;2.90;;;2.60;;
47882;SDS011;37739;50.350;7.578;2023-07-24T05:43:22;3.10;;;2.80;;
47882;SDS011;37739;50.350;7.578;2023-07-24T05:45:47;3.30;;;3.00;;
47882;SDS011;37739;50.350;7.578;2023-07-24T05:48:15;3.37;;;3.07;;
47882;SDS011;37739;50.350;7.578;2023-07-24T05:50:40;2.93;;;2.63;;
47882;SDS011;37739;50.350;7.578;2023-07-24T05:53:08;4.47;;;3.07;;
47882;SDS011;37739;50.350;7.578;2023-07-24T05:55:36;3.67;;;3.03;;
47882;SDS011;37739;50.350;7.578;2023-07-24T05:58:01;4.00;;;3.33;;
47882;SDS011;37739;50.350;7.578;2023-07-24T06:00:27;3.13;;;2.83;;
47882;SDS011;37739;50.350;7.578;2023-07-24T06:02:55;3.43;;;3.00;;
47882;SDS011;37739;50.350;7.578;2023-07-24T06:05:20;3.60;;;3.03;;
47882;SDS011;37739;50.350;7.578;2023-07-24T06:07:50;3.70;;;3.40;;
47882;SDS011;37739;50.350;7.578;2023-07-24T06:10:16;3.90;;;3.50;;
47882;SDS011;37739;50.350;7.578;2023-07-24T06:12:41;2.77;;;2.57;;
47882;SDS011;37739;50.350;7.578;2023-07-24T06:15:09;4.47;;;3.70;;
47882;SDS011;37739;50.350;7.578;2023-07-24T06:17:34;4.23;;;3.73;;
47882;SDS011;37739;50.350;7.578;2023-07-24T06:20:00;2.73;;;2.53;;
47882;SDS011;37739;50.350;7.578;2023-07-24T06:22:25;4.97;;;3.67;;
47882;SDS011;37739;50.350;7.578;2023-07-24T06:24:50;3.10;;;2.50;;
47882;SDS011;37739;50.350;7.578;2023-07-24T06:27:16;4.60;;;3.27;;
47882;SDS011;37739;50.350;7.578;2023-07-24T06:29:41;3.37;;;3.07;;
47882;SDS011;37739;50.350;7.578;2023-07-24T06:32:11;3.50;;;3.20;;
47882;SDS011;37739;50.350;7.578;2023-07-24T06:34:36;4.93;;;3.40;;
47882;SDS011;37739;50.350;7.578;2023-07-24T06:37:04;3.63;;;3.03;;
47882;SDS011;37739;50.350;7.578;2023-07-24T06:39:32;3.57;;;2.43;;
47882;SDS011;37739;50.350;7.578;2023-07-24T06:41:59;3.10;;;2.80;;
47882;SDS011;37739;50.350;7.578;2023-07-24T06:44:27;3.30;;;3.00;;
47882;SDS011;37739;50.350;7.578;2023-07-24T06:46:57;2.70;;;2.50;;
47882;SDS011;37739;50.350;7.578;2023-07-24T06:49:27;3.60;;;2.53;;
47882;SDS011;37739;50.350;7.578;2023-07-24T06:51:52;3.03;;;2.70;;
47882;SDS011;37739;50.350;7.578;2023-07-24T06:54:20;3.67;;;2.73;;
47882;SDS011;37739;50.350;7.578;2023-07-24T06:56:45;3.03;;;2.80;;
47882;SDS011;37739;50.350;7.578;2023-07-24T06:59:10;2.70;;;2.50;;
47882;SDS011;37739;50.350;7.578;2023-07-24T07:01:35;2.83;;;2.57;;
47882;SDS011;37739;50.350;7.578;2023-07-24T07:04:01;3.97;;;3.57;;
47882;SDS011;37739;50.350;7.578;2023-07-24T07:06:28;2.50;;;2.30;;
47882;SDS011;37739;50.350;7.578;2023-07-24T07:08:54;3.33;;;3.03;;
47882;SDS011;37739;50.350;7.578;2023-07-24T07:11:22;3.33;;;2.97;;
47882;SDS011;37739;50.350;7.578;2023-07-24T07:13:47;2.90;;;2.70;;
47882;SDS011;37739;50.350;7.578;2023-07-24T07:16:12;2.57;;;2.37;;
47882;SDS011;37739;50.350;7.578;2023-07-24T07:18:38;3.30;;;2.70;;
47882;SDS011;37739;50.350;7.578;2023-07-24T07:21:03;3.63;;;3.30;;
47882;SDS011;37739;50.350;7.578;2023-07-24T07:23:31;2.97;;;2.67;;
47882;SDS011;37739;50.350;7.578;2023-07-24T07:25:58;3.40;;;3.10;;
47882;SDS011;37739;50.350;7.578;2023-07-24T07:28:24;3.07;;;2.67;;
47882;SDS011;37739;50.350;7.578;2023-07-24T07:30:51;3.40;;;2.80;;
47882;SDS011;37739;50.350;7.578;2023-07-24T07:33:19;3.40;;;3.10;;
47882;SDS011;37739;50.350;7.578;2023-07-24T07:35:46;3.40;;;3.10;;
47882;SDS011;37739;50.350;7.578;2023-07-24T07:38:17;3.50;;;3.20;;
47882;SDS011;37739;50.350;7.578;2023-07-24T07:40:42;4.80;;;3.30;;
47882;SDS011;37739;50.350;7.578;2023-07-24T07:43:09;3.40;;;3.10;;
47882;SDS011;37739;50.350;7.578;2023-07-24T07:45:35;3.87;;;3.27;;
47882;SDS011;37739;50.350;7.578;2023-07-24T07:48:02;4.80;;;3.77;;
47882;SDS011;37739;50.350;7.578;2023-07-24T07:50:28;3.63;;;2.97;;
47882;SDS011;37739;50.350;7.578;2023-07-24T07:52:53;3.63;;;3.33;;
47882;SDS011;37739;50.350;7.578;2023-07-24T07:55:21;3.20;;;2.90;;
47882;SDS011;37739;50.350;7.578;2023-07-24T07:57:46;3.50;;;2.80;;
47882;SDS011;37739;50.350;7.578;2023-07-24T08:00:16;3.50;;;2.30;;
47882;SDS011;37739;50.350;7.578;2023-07-24T08:02:42;4.17;;;3.77;;
47882;SDS011;37739;50.350;7.578;2023-07-24T08:05:08;3.20;;;2.90;;
47882;SDS011;37739;50.350;7.578;2023-07-24T08:07:34;2.77;;;2.57;;
47882;SDS011;37739;50.350;7.578;2023-07-24T08:09:59;4.23;;;2.80;;
47882;SDS011;37739;50.350;7.578;2023-07-24T08:12:27;3.37;;;3.07;;
47882;SDS011;37739;50.350;7.578;2023-07-24T08:14:55;3.40;;;2.87;;
47882;SDS011;37739;50.350;7.578;2023-07-24T08:17:20;3.33;;;2.90;;
47882;SDS011;37739;50.350;7.578;2023-07-24T08:19:46;3.50;;;3.10;;
47882;SDS011;37739;50.350;7.578;2023-07-24T08:22:13;3.50;;;3.20;;
47882;SDS011;37739;50.350;7.578;2023-07-24T08:24:41;3.93;;;3.33;;
47882;SDS011;37739;50.350;7.578;2023-07-24T08:27:06;5.17;;;3.30;;
47882;SDS011;37739;50.350;7.578;2023-07-24T08:29:31;3.40;;;3.10;;
47882;SDS011;37739;50.350;7.578;2023-07-24T08:32:00;4.20;;;3.30;;
47882;SDS011;37739;50.350;7.578;2023-07-24T08:34:26;4.10;;;3.30;;
47882;SDS011;37739;50.350;7.578;2023-07-24T08:36:51;3.17;;;2.87;;
47882;SDS011;37739;50.350;7.578;2023-07-24T08:39:16;3.63;;;2.90;;
47882;SDS011;37739;50.350;7.578;2023-07-24T08:41:44;3.27;;;2.97;;
47882;SDS011;37739;50.350;7.578;2023-07-24T08:44:12;3.23;;;2.93;;
47882;SDS011;37739;50.350;7.578;2023-07-24T08:46:40;3.10;;;2.80;;
47882;SDS011;37739;50.350;7.578;2023-07-24T08:49:15;3.43;;;3.13;;
47882;SDS011;37739;50.350;7.578;2023-07-24T08:51:41;2.87;;;2.60;;
47882;SDS011;37739;50.350;7.578;2023-07-24T08:54:09;3.20;;;2.90;;
47882;SDS011;37739;50.350;7.578;2023-07-24T08:56:36;3.40;;;3.10;;
47882;SDS011;37739;50.350;7.578;2023-07-24T08:59:03;3.30;;;2.87;;
47882;SDS011;37739;50.350;7.578;2023-07-24T09:01:28;3.33;;;3.03;;
47882;SDS011;37739;50.350;7.578;2023-07-24T09:03:56;4.70;;;3.30;;
47882;SDS011;37739;50.350;7.578;2023-07-24T09:06:21;3.30;;;3.00;;
47882;SDS011;37739;50.350;7.578;2023-07-24T09:08:47;4.57;;;2.37;;
47882;SDS011;37739;50.350;7.578;2023-07-24T09:11:14;4.20;;;2.90;;
47882;SDS011;37739;50.350;7.578;2023-07-24T09:13:42;3.87;;;3.10;;
47882;SDS011;37739;50.350;7.578;2023-07-24T09:16:08;2.77;;;2.53;;
47882;SDS011;37739;50.350;7.578;2023-07-24T09:18:45;3.53;;;2.70;;
47882;SDS011;37739;50.350;7.578;2023-07-24T09:21:10;3.00;;;2.70;;
47882;SDS011;37739;50.350;7.578;2023-07-24T09:23:41;3.07;;;2.77;;
47882;SDS011;37739;50.350;7.578;2023-07-24T09:26:08;3.57;;;3.00;;
47882;SDS011;37739;50.350;7.578;2023-07-24T09:28:34;3.00;;;2.60;;
47882;SDS011;37739;50.350;7.578;2023-07-24T09:31:00;3.10;;;2.80;;
47882;SDS011;37739;50.350;7.578;2023-07-24T09:33:36;2.83;;;2.63;;
47882;SDS011;37739;50.350;7.578;2023-07-24T09:36:03;3.43;;;2.63;;
47882;SDS011;37739;50.350;7.578;2023-07-24T09:38:32;3.30;;;2.97;;
47882;SDS011;37739;50.350;7.578;2023-07-24T09:41:01;3.23;;;2.60;;
47882;SDS011;37739;50.350;7.578;2023-07-24T09:43:27;4.10;;;2.90;;
47882;SDS011;37739;50.350;7.578;2023-07-24T09:45:53;2.90;;;2.63;;
47882;SDS011;37739;50.350;7.578;2023-07-24T09:48:20;2.80;;;2.60;;
47882;SDS011;37739;50.350;7.578;2023-07-24T09:50:48;3.30;;;2.90;;
47882;SDS011;37739;50.350;7.578;2023-07-24T09:56:06;3.23;;;2.93;;
47882;SDS011;37739;50.350;7.578;2023-07-24T09:58:35;2.97;;;2.60;;
47882;SDS011;37739;50.350;7.578;2023-07-24T10:01:06;3.57;;;2.73;;
47882;SDS011;37739;50.350;7.578;2023-07-24T10:03:37;3.13;;;2.77;;
47882;SDS011;37739;50.350;7.578;2023-07-24T10:06:03;3.60;;;2.90;;
47882;SDS011;37739;50.350;7.578;2023-07-24T10:08:31;3.10;;;2.80;;
47882;SDS011;37739;50.350;7.578;2023-07-24T10:11:00;3.27;;;2.97;;
47882;SDS011;37739;50.350;7.578;2023-07-24T10:13:26;2.93;;;2.73;;
47882;SDS011;37739;50.350;7.578;2023-07-24T10:15:52;3.30;;;3.00;;
47882;SDS011;37739;50.350;7.578;2023-07-24T10:18:25;3.40;;;3.10;;
47882;SDS011;37739;50.350;7.578;2023-07-24T10:20:59;3.27;;;2.97;;
47882;SDS011;37739;50.350;7.578;2023-07-24T10:23:27;3.83;;;3.10;;
47882;SDS011;37739;50.350;7.578;2023-07-24T10:25:52;3.80;;;3.10;;
47882;SDS011;37739;50.350;7.578;2023-07-24T10:28:18;3.27;;;2.97;;
47882;SDS011;37739;50.350;7.578;2023-07-24T10:30:55;3.90;;;3.20;;
47882;SDS011;37739;50.350;7.578;2023-07-24T10:33:21;3.80;;;3.50;;
47882;SDS011;37739;50.350;7.578;2023-07-24T10:35:49;3.80;;;3.33;;
47882;SDS011;37739;50.350;7.578;2023-07-24T10:38:18;3.93;;;3.53;;
47882;SDS011;37739;50.350;7.578;2023-07-24T10:41:01;3.90;;;3.60;;
47882;SDS011;37739;50.350;7.578;2023-07-24T10:43:39;4.00;;;3.50;;
47882;SDS011;37739;50.350;7.578;2023-07-24T10:46:19;3.80;;;3.40;;
47882;SDS011;37739;50.350;7.578;2023-07-24T10:48:46;3.87;;;3.57;;
47882;SDS011;37739;50.350;7.578;2023-07-24T10:51:15;3.77;;;3.37;;
47882;SDS011;37739;50.350;7.578;2023-07-24T10:53:46;3.97;;;3.57;;
47882;SDS011;37739;50.350;7.578;2023-07-24T10:56:15;3.60;;;3.30;;
47882;SDS011;37739;50.350;7.578;2023-07-24T10:58:41;3.20;;;2.90;;
47882;SDS011;37739;50.350;7.578;2023-07-24T11:01:13;3.67;;;3.20;;
47882;SDS011;37739;50.350;7.578;2023-07-24T11:03:42;5.17;;;3.87;;
47882;SDS011;37739;50.350;7.578;2023-07-24T11:06:15;3.97;;;3.57;;
47882;SDS011;37739;50.350;7.578;2023-07-24T11:08:53;3.93;;;3.30;;
47882;SDS011;37739;50.350;7.578;2023-07-24T11:11:21;4.40;;;3.97;;
47882;SDS011;37739;50.350;7.578;2023-07-24T11:13:47;3.90;;;3.50;;
47882;SDS011;37739;50.350;7.578;2023-07-24T11:16:15;4.10;;;3.70;;
47882;SDS011;37739;50.350;7.578;2023-07-24T11:18:44;4.00;;;3.60;;
47882;SDS011;37739;50.350;7.578;2023-07-24T11:21:11;4.47;;;4.07;;
47882;SDS011;37739;50.350;7.578;2023-07-24T11:23:37;3.87;;;3.50;;
47882;SDS011;37739;50.350;7.578;2023-07-24T11:26:04;3.80;;;3.43;;
47882;SDS011;37739;50.350;7.578;2023-07-24T11:28:38;4.30;;;3.57;;
47882;SDS011;37739;50.350;7.578;2023-07-24T11:31:04;4.10;;;3.70;;
47882;SDS011;37739;50.350;7.578;2023-07-24T11:33:32;4.20;;;3.80;;
47882;SDS011;37739;50.350;7.578;2023-07-24T11:35:58;4.33;;;3.93;;
47882;SDS011;37739;50.350;7.578;2023-07-24T11:38:24;3.80;;;3.47;;
47882;SDS011;37739;50.350;7.578;2023-07-24T11:40:49;3.60;;;3.30;;
47882;SDS011;37739;50.350;7.578;2023-07-24T11:43:19;3.50;;;3.20;;
47882;SDS011;37739;50.350;7.578;2023-07-24T11:45:47;4.03;;;3.63;;
47882;SDS011;37739;50.350;7.578;2023-07-24T11:48:23;3.90;;;3.23;;
47882;SDS011;37739;50.350;7.578;2023-07-24T11:50:53;4.00;;;3.60;;
47882;SDS011;37739;50.350;7.578;2023-07-24T11:55:57;3.33;;;2.90;;
47882;SDS011;37739;50.350;7.578;2023-07-24T11:58:27;3.83;;;3.40;;
47882;SDS011;37739;50.350;7.578;2023-07-24T12:00:53;3.40;;;3.07;;
47882;SDS011;37739;50.350;7.578;2023-07-24T12:03:24;3.13;;;2.83;;
47882;SDS011;37739;50.350;7.578;2023-07-24T12:05:50;2.93;;;2.63;;
47882;SDS011;37739;50.350;7.578;2023-07-24T12:08:20;3.30;;;3.00;;
47882;SDS011;37739;50.350;7.578;2023-07-24T12:10:48;3.23;;;2.93;;
47882;SDS011;37739;50.350;7.578;2023-07-24T12:13:16;3.23;;;2.93;;
47882;SDS011;37739;50.350;7.578;2023-07-24T12:15:41;3.93;;;3.23;;
47882;SDS011;37739;50.350;7.578;2023-07-24T12:18:07;3.20;;;2.90;;
47882;SDS011;37739;50.350;7.578;2023-07-24T12:20:34;5.10;;;3.03;;
47882;SDS011;37739;50.350;7.578;2023-07-24T12:23:02;4.10;;;2.93;;
47882;SDS011;37739;50.350;7.578;2023-07-24T12:25:29;3.20;;;2.70;;
47882;SDS011;37739;50.350;7.578;2023-07-24T12:27:57;3.10;;;2.80;;
47882;SDS011;37739;50.350;7.578;2023-07-24T12:30:25;3.80;;;3.13;;
47882;SDS011;37739;50.350;7.578;2023-07-24T12:32:50;2.97;;;2.67;;
47882;SDS011;37739;50.350;7.578;2023-07-24T12:35:18;2.70;;;2.30;;
47882;SDS011;37739;50.350;7.578;2023-07-24T12:37:46;3.53;;;3.20;;
47882;SDS011;37739;50.350;7.578;2023-07-24T12:40:11;3.73;;;3.30;;
47882;SDS011;37739;50.350;7.578;2023-07-24T12:42:39;3.97;;;3.47;;
47882;SDS011;37739;50.350;7.578;2023-07-24T12:45:05;2.90;;;2.60;;
47882;SDS011;37739;50.350;7.578;2023-07-24T12:47:31;3.17;;;2.87;;
47882;SDS011;37739;50.350;7.578;2023-07-24T12:49:57;2.70;;;2.50;;
47882;SDS011;37739;50.350;7.578;2023-07-24T12:52:23;3.17;;;2.33;;
47882;SDS011;37739;50.350;7.578;2023-07-24T12:54:51;3.80;;;2.67;;
47882;SDS011;37739;50.350;7.578;2023-07-24T12:57:17;2.60;;;2.40;;
47882;SDS011;37739;50.350;7.578;2023-07-24T12:59:42;2.50;;;2.30;;
47882;SDS011;37739;50.350;7.578;2023-07-24T13:02:10;2.50;;;2.30;;
47882;SDS011;37739;50.350;7.578;2023-07-24T13:04:35;2.60;;;2.20;;
47882;SDS011;37739;50.350;7.578;2023-07-24T13:07:00;2.80;;;2.50;;
47882;SDS011;37739;50.350;7.578;2023-07-24T13:09:27;4.77;;;1.97;;
47882;SDS011;37739;50.350;7.578;2023-07-24T13:11:52;3.20;;;2.17;;
47882;SDS011;37739;50.350;7.578;2023-07-24T13:14:22;2.27;;;2.07;;
47882;SDS011;37739;50.350;7.578;2023-07-24T13:16:48;2.30;;;2.00;;
47882;SDS011;37739;50.350;7.578;2023-07-24T13:19:17;2.33;;;1.80;;
47882;SDS011;37739;50.350;7.578;2023-07-24T13:21:44;2.20;;;2.00;;
47882;SDS011;37739;50.350;7.578;2023-07-24T13:24:14;2.63;;;2.10;;
47882;SDS011;37739;50.350;7.578;2023-07-24T13:26:41;2.90;;;1.93;;
47882;SDS011;37739;50.350;7.578;2023-07-24T13:29:09;2.00;;;1.70;;
47882;SDS011;37739;50.350;7.578;2023-07-24T13:31:39;3.23;;;1.80;;
47882;SDS011;37739;50.350;7.578;2023-07-24T13:34:06;2.10;;;1.80;;
47882;SDS011;37739;50.350;7.578;2023-07-24T13:36:34;2.10;;;1.90;;
47882;SDS011;37739;50.350;7.578;2023-07-24T13:38:59;2.20;;;2.00;;
47882;SDS011;37739;50.350;7.578;2023-07-24T13:41:27;2.03;;;1.10;;
47882;SDS011;37739;50.350;7.578;2023-07-24T13:43:52;1.83;;;1.40;;
47882;SDS011;37739;50.350;7.578;2023-07-24T13:46:17;1.80;;;1.50;;
47882;SDS011;37739;50.350;7.578;2023-07-24T13:48:47;1.87;;;1.40;;
47882;SDS011;37739;50.350;7.578;2023-07-24T13:51:15;2.57;;;1.70;;
47882;SDS011;37739;50.350;7.578;2023-07-24T13:53:40;1.50;;;1.40;;
47882;SDS011;37739;50.350;7.578;2023-07-24T13:56:08;2.50;;;1.40;;
47882;SDS011;37739;50.350;7.578;2023-07-24T13:58:34;1.53;;;1.30;;
47882;SDS011;37739;50.350;7.578;2023-07-24T14:01:01;1.40;;;1.20;;
47882;SDS011;37739;50.350;7.578;2023-07-24T14:03:32;1.37;;;0.97;;
47882;SDS011;37739;50.350;7.578;2023-07-24T14:05:57;1.30;;;1.00;;
47882;SDS011;37739;50.350;7.578;2023-07-24T14:08:22;1.33;;;1.00;;
47882;SDS011;37739;50.350;7.578;2023-07-24T14:10:51;2.00;;;0.90;;
47882;SDS011;37739;50.350;7.578;2023-07-24T14:13:16;1.13;;;0.93;;
47882;SDS011;37739;50.350;7.578;2023-07-24T14:15:44;1.60;;;1.13;;
47882;SDS011;37739;50.350;7.578;2023-07-24T14:18:10;3.17;;;1.03;;
47882;SDS011;37739;50.350;7.578;2023-07-24T14:20:35;1.60;;;1.10;;
47882;SDS011;37739;50.350;7.578;2023-07-24T14:23:02;1.20;;;1.00;;
47882;SDS011;37739;50.350;7.578;2023-07-24T14:25:27;1.20;;;0.90;;
47882;SDS011;37739;50.350;7.578;2023-07-24T14:27:53;1.57;;;1.03;;
47882;SDS011;37739;50.350;7.578;2023-07-24T14:30:20;1.20;;;0.90;;
47882;SDS011;37739;50.350;7.578;2023-07-24T14:32:45;1.20;;;0.90;;
47882;SDS011;37739;50.350;7.578;2023-07-24T14:35:11;1.40;;;1.00;;
47882;SDS011;37739;50.350;7.578;2023-07-24T14:37:36;1.13;;;0.97;;
47882;SDS011;37739;50.350;7.578;2023-07-24T14:40:02;1.20;;;0.90;;
47882;SDS011;37739;50.350;7.578;2023-07-24T14:42:29;1.57;;;1.03;;
47882;SDS011;37739;50.350;7.578;2023-07-24T14:44:55;1.10;;;0.80;;
47882;SDS011;37739;50.350;7.578;2023-07-24T14:47:27;0.90;;;0.70;;
47882;SDS011;37739;50.350;7.578;2023-07-24T14:49:52;1.10;;;0.90;;
47882;SDS011;37739;50.350;7.578;2023-07-24T14:52:18;1.30;;;0.90;;
47882;SDS011;37739;50.350;7.578;2023-07-24T14:54:43;1.23;;;0.90;;
47882;SDS011;37739;50.350;7.578;2023-07-24T14:57:08;1.53;;;0.87;;